createdAt,value
2022-12-17T00:00:15.571Z,-6.47
2022-12-17T00:05:34.875Z,-6.47
2022-12-17T00:10:54.351Z,-6.61
2022-12-17T00:16:13.923Z,-6.74
2022-12-17T00:21:33.125Z,-6.78
2022-12-17T00:26:53.025Z,-6.80
2022-12-17T00:32:13.345Z,-6.77
2022-12-17T00:37:32.989Z,-6.79
2022-12-17T00:42:52.562Z,-6.98
2022-12-17T00:48:15.541Z,-6.88
2022-12-17T00:53:35.922Z,-6.93
2022-12-17T00:58:55.597Z,-6.99
2022-12-17T01:04:16.028Z,-6.97
2022-12-17T01:09:35.604Z,-7.00
2022-12-17T01:14:55.159Z,-6.97
2022-12-17T01:20:14.615Z,-7.04
2022-12-17T01:25:34.197Z,-6.96
2022-12-17T01:30:56.205Z,-7.05
2022-12-17T01:36:17.025Z,-7.00
2022-12-17T01:41:37.100Z,-7.02
2022-12-17T01:47:02.542Z,-7.22
2022-12-17T01:52:22.059Z,-7.49
2022-12-17T01:57:43.403Z,-7.46
2022-12-17T02:03:03.225Z,-7.44
2022-12-17T02:08:43.179Z,-7.40
2022-12-17T02:14:21.944Z,-7.41
2022-12-17T02:20:38.497Z,-7.48
2022-12-17T02:26:08.034Z,-7.48
2022-12-17T02:31:31.418Z,-7.45
2022-12-17T02:36:53.350Z,-7.45
2022-12-17T02:42:15.900Z,-7.36
2022-12-17T02:47:37.809Z,-7.37
2022-12-17T02:53:00.857Z,-7.41
2022-12-17T02:58:20.352Z,-7.53
2022-12-17T03:03:40.756Z,-7.55
2022-12-17T03:09:01.318Z,-7.65
2022-12-17T03:14:21.148Z,-7.53
2022-12-17T03:19:40.589Z,-7.50
2022-12-17T03:25:00.092Z,-7.59
2022-12-17T03:30:19.806Z,-7.63
2022-12-17T03:35:39.827Z,-7.57
2022-12-17T03:40:59.478Z,-7.51
2022-12-17T03:46:19.001Z,-7.47
2022-12-17T03:51:38.391Z,-7.52
2022-12-17T03:56:57.786Z,-7.50
2022-12-17T04:02:18.421Z,-7.45
2022-12-17T04:07:37.660Z,-7.70
2022-12-17T04:12:57.044Z,-7.67
2022-12-17T04:18:16.481Z,-7.59
2022-12-17T04:23:36.197Z,-7.59
2022-12-17T04:28:55.857Z,-7.70
2022-12-17T04:34:15.379Z,-7.73
2022-12-17T04:39:35.401Z,-7.67
2022-12-17T04:44:54.814Z,-7.76
2022-12-17T04:50:14.525Z,-7.71
2022-12-17T04:55:33.918Z,-7.72
2022-12-17T05:00:53.322Z,-7.75
2022-12-17T05:06:12.869Z,-7.81
2022-12-17T05:11:32.237Z,-7.77
2022-12-17T05:16:51.744Z,-7.77
2022-12-17T05:22:11.134Z,-7.79
2022-12-17T05:27:30.670Z,-7.79
2022-12-17T05:32:50.121Z,-7.84
2022-12-17T05:38:09.780Z,-7.83
2022-12-17T05:43:31.411Z,-7.86
2022-12-17T05:48:52.084Z,-7.82
2022-12-17T05:54:12.360Z,-7.83
2022-12-17T05:59:32.025Z,-7.81
2022-12-17T06:04:51.475Z,-7.75
2022-12-17T06:10:11.441Z,-7.92
2022-12-17T06:15:30.869Z,-7.93
2022-12-17T06:20:50.516Z,-7.93
2022-12-17T06:26:10.922Z,-7.98
2022-12-17T06:31:30.734Z,-7.90
2022-12-17T06:36:50.211Z,-8.04
2022-12-17T06:42:09.665Z,-7.95
2022-12-17T06:47:29.512Z,-7.99
2022-12-17T06:52:49.024Z,-8.01
2022-12-17T06:58:14.875Z,-8.00
2022-12-17T07:03:35.045Z,-7.90
2022-12-17T07:08:55.045Z,-7.91
2022-12-17T07:14:16.488Z,-7.79
2022-12-17T07:19:35.893Z,-7.81
2022-12-17T07:24:55.476Z,-7.74
2022-12-17T07:30:14.942Z,-7.74
2022-12-17T07:35:35.216Z,-7.68
2022-12-17T07:40:54.682Z,-7.46
2022-12-17T07:46:14.683Z,-6.80
2022-12-17T07:51:34.167Z,-6.48
2022-12-17T07:56:53.599Z,-6.20
2022-12-17T08:02:15.003Z,-5.24
2022-12-17T08:07:34.502Z,-5.22
2022-12-17T08:12:53.960Z,-4.95
2022-12-17T08:18:26.348Z,-4.69
2022-12-17T08:23:46.396Z,-4.76
2022-12-17T08:29:05.874Z,-4.73
2022-12-17T08:34:25.890Z,-4.45
2022-12-17T08:39:45.448Z,-4.20
2022-12-17T08:45:05.260Z,-3.94
2022-12-17T08:50:25.886Z,-3.85
2022-12-17T08:55:45.594Z,-3.40
2022-12-17T09:01:05.125Z,-3.08
2022-12-17T09:06:25.018Z,-3.00
2022-12-17T09:11:44.416Z,-2.74
2022-12-17T09:17:03.876Z,-2.60
2022-12-17T09:23:26.986Z,-2.59
2022-12-17T09:28:46.721Z,-2.22
2022-12-17T09:34:06.198Z,-1.73
2022-12-17T09:39:25.700Z,-1.86
2022-12-17T09:44:59.929Z,-2.34
2022-12-17T09:50:22.649Z,-2.13
2022-12-17T09:55:48.284Z,-1.87
2022-12-17T10:01:10.300Z,-2.24
2022-12-17T10:06:34.920Z,-2.14
2022-12-17T10:11:54.454Z,-2.04
2022-12-17T10:17:13.903Z,-1.51
2022-12-17T10:22:39.175Z,-1.65
2022-12-17T10:27:59.567Z,-1.70
2022-12-17T10:33:23.984Z,-1.29
2022-12-17T10:38:48.437Z,-1.75
2022-12-17T10:44:08.085Z,-1.52
2022-12-17T10:49:30.942Z,-1.31
2022-12-17T10:54:52.161Z,-1.22
2022-12-17T11:00:12.159Z,-1.29
2022-12-17T11:05:59.459Z,-0.70
2022-12-17T11:11:22.302Z,-1.48
2022-12-17T11:16:52.829Z,-1.44
2022-12-17T11:22:15.764Z,-2.03
2022-12-17T11:27:42.302Z,-1.67
2022-12-17T11:33:55.346Z,-1.57
2022-12-17T11:39:27.953Z,-1.70
2022-12-17T11:45:31.207Z,-2.29
2022-12-17T11:52:26.870Z,-2.02
2022-12-17T11:59:41.240Z,-1.96
2022-12-17T12:05:22.125Z,-1.31
2022-12-17T12:10:58.821Z,-1.52
2022-12-17T12:20:09.644Z,-2.14
2022-12-17T12:26:34.370Z,-1.77
2022-12-17T12:32:16.348Z,-1.19
2022-12-17T12:37:38.680Z,-1.05
2022-12-17T12:43:08.836Z,-1.71
2022-12-17T12:50:31.666Z,-1.60
2022-12-17T12:55:56.828Z,-0.92
2022-12-17T13:01:16.356Z,-1.29
2022-12-17T13:06:55.482Z,-1.10
2022-12-17T13:13:35.341Z,-1.00
2022-12-17T13:18:41.305Z,-0.27
2022-12-17T13:23:42.837Z,-0.29
2022-12-17T13:29:47.981Z,-0.15
2022-12-17T13:35:08.478Z,-0.57
2022-12-17T13:41:33.945Z,-0.86
2022-12-17T13:46:46.601Z,-0.27
2022-12-17T13:51:59.136Z,0.47
2022-12-17T13:57:36.718Z,0.50
2022-12-17T14:02:38.348Z,1.23
2022-12-17T14:07:39.969Z,1.07
2022-12-17T14:12:41.150Z,-0.05
2022-12-17T14:17:46.054Z,0.48
2022-12-17T14:23:33.457Z,0.37
2022-12-17T14:28:37.424Z,0.16
2022-12-17T14:33:38.659Z,0.69
2022-12-17T14:38:42.978Z,0.79
2022-12-17T14:43:55.350Z,0.68
2022-12-17T14:49:01.531Z,1.19
2022-12-17T14:54:29.192Z,0.67
2022-12-17T14:59:35.712Z,0.63
2022-12-17T15:04:38.592Z,1.26
2022-12-17T15:09:42.068Z,1.85
2022-12-17T15:14:42.858Z,1.43
2022-12-17T15:19:43.848Z,0.32
2022-12-17T15:24:45.063Z,-1.40
2022-12-17T15:29:45.941Z,-3.05
2022-12-17T15:34:47.181Z,-4.30
2022-12-17T15:39:48.014Z,-4.86
2022-12-17T15:44:48.745Z,-5.13
2022-12-17T15:49:49.843Z,-5.44
2022-12-17T15:54:50.575Z,-5.48
2022-12-17T15:59:51.374Z,-4.58
2022-12-17T16:04:52.256Z,-4.81
2022-12-17T16:09:53.348Z,-4.92
2022-12-17T16:14:54.187Z,-4.98
2022-12-17T16:19:54.974Z,-5.07
2022-12-17T16:24:55.737Z,-5.24
2022-12-17T16:29:56.514Z,-5.30
2022-12-17T16:34:57.351Z,-5.56
2022-12-17T16:40:00.419Z,-5.68
2022-12-17T16:45:01.623Z,-5.72
2022-12-17T16:50:03.022Z,-5.70
2022-12-17T16:55:04.776Z,-5.67
2022-12-17T17:00:07.011Z,-5.64
2022-12-17T17:05:08.073Z,-5.75
2022-12-17T17:10:09.302Z,-5.87
2022-12-17T17:15:10.448Z,-5.96
2022-12-17T17:20:12.252Z,-6.00
2022-12-17T17:25:13.019Z,-6.03
2022-12-17T17:30:13.820Z,-6.12
2022-12-17T17:35:15.659Z,-6.13
2022-12-17T17:40:16.435Z,-6.21
2022-12-17T17:45:17.175Z,-6.36
2022-12-17T17:50:17.931Z,-6.32
2022-12-17T17:55:18.714Z,-6.40
2022-12-17T18:00:19.649Z,-6.45
2022-12-17T18:05:20.466Z,-6.58
2022-12-17T18:10:21.251Z,-6.56
2022-12-17T18:15:22.316Z,-6.57
2022-12-17T18:20:23.110Z,-6.59
2022-12-17T18:25:23.908Z,-6.56
2022-12-17T18:30:24.701Z,-6.63
2022-12-17T18:35:26.686Z,-6.66
2022-12-17T18:40:32.899Z,-6.92
2022-12-17T18:45:37.619Z,-6.91
2022-12-17T18:50:38.363Z,-7.06
2022-12-17T18:55:40.283Z,-6.95
2022-12-17T19:00:41.108Z,-6.98
2022-12-17T19:05:46.557Z,-7.04
2022-12-17T19:10:49.025Z,-7.05
2022-12-17T19:15:50.153Z,-7.09
2022-12-17T19:20:56.582Z,-7.38
2022-12-17T19:26:08.019Z,-7.45
2022-12-17T19:31:09.453Z,-7.58
2022-12-17T19:36:17.097Z,-7.98
2022-12-17T19:41:18.674Z,-8.06
2022-12-17T19:46:19.894Z,-8.14
2022-12-17T19:51:23.225Z,-8.32
2022-12-17T19:56:27.272Z,-8.17
2022-12-17T20:01:31.403Z,-8.29
2022-12-17T20:06:34.418Z,-8.59
2022-12-17T20:11:36.165Z,-8.80
2022-12-17T20:16:40.526Z,-9.08
2022-12-17T20:21:41.559Z,-9.15
2022-12-17T20:26:44.107Z,-9.00
2022-12-17T20:31:49.930Z,-9.02
2022-12-17T20:36:52.203Z,-9.30
2022-12-17T20:41:53.193Z,-9.37
2022-12-17T20:46:54.787Z,-9.68
2022-12-17T20:51:55.684Z,-9.84
2022-12-17T20:56:56.647Z,-9.52
2022-12-17T21:01:57.475Z,-9.33
2022-12-17T21:06:58.425Z,-9.08
2022-12-17T21:11:59.221Z,-9.23
2022-12-17T21:17:00.469Z,-9.45
2022-12-17T21:22:01.588Z,-9.40
2022-12-17T21:27:02.597Z,-9.55
2022-12-17T21:32:04.115Z,-9.27
2022-12-17T21:37:04.955Z,-9.16
2022-12-17T21:42:29.015Z,-9.39
2022-12-17T21:47:29.849Z,-9.59
2022-12-17T21:52:30.647Z,-9.51
2022-12-17T21:57:31.358Z,-9.41
2022-12-17T22:02:32.356Z,-9.35
2022-12-17T22:07:36.180Z,-9.26
2022-12-17T22:13:01.662Z,-9.38
2022-12-17T22:18:02.610Z,-9.34
2022-12-17T22:23:04.591Z,-9.25
2022-12-17T22:28:05.816Z,-9.28
2022-12-17T22:33:26.312Z,-9.10
2022-12-17T22:44:28.525Z,-8.87
2022-12-17T22:49:41.124Z,-8.51
2022-12-17T22:54:44.820Z,-8.60
2022-12-17T22:59:46.339Z,-8.70
2022-12-17T23:04:47.319Z,-8.80
2022-12-17T23:09:48.273Z,-8.81
2022-12-17T23:14:49.038Z,-8.79
2022-12-17T23:19:49.789Z,-8.63
2022-12-17T23:24:50.729Z,-8.51
2022-12-17T23:29:51.480Z,-8.41
2022-12-17T23:34:52.303Z,-8.41
2022-12-17T23:39:53.142Z,-8.41
2022-12-17T23:44:53.878Z,-8.40
2022-12-17T23:49:54.605Z,-8.33
2022-12-17T23:57:12.942Z,-8.39
